Big Bear Station Historical Data
Daily Summary for April 4, 2019 Units:  English    Metric   Both
Next Day »
Daily Weekly Monthly Yearly Custom
  High: Low: Average:
Temperature: 51.4 °F 32.2 °F 40.1 °F
Dew Point: 38.0 °F 23.5 °F 32.6 °F
Humidity: 96% 52% 76%
Wind Speed: 8.3mph 0.0mph 2.4mph
Wind Gust: -999.0mph - -
Wind- - WNW
Pressure: 23.49 in 23.39 in -
Precipitation: 0.00 in    
Historical Graphs
 
 
Tabular Data for April 4, 2019
Time Temperature Dew Point Pressure Wind Wind Speed Wind Gust Humidity Rainfall Rate (Hourly)
00:05 33.6 °F 31.0 °F 23.48 in Calm   -999.0 mph 90% 0.00 in
00:20 33.4 °F 31.3 °F 23.49 in Calm   -999.0 mph 92% 0.00 in
00:36 33.3 °F 31.2 °F 23.48 in Calm   -999.0 mph 92% 0.00 in
00:51 33.3 °F 30.7 °F 23.48 in Calm   -999.0 mph 90% 0.00 in
01:06 33.4 °F 31.1 °F 23.48 in Calm   -999.0 mph 91% 0.00 in
01:21 34.0 °F 31.7 °F 23.48 in Calm   -999.0 mph 91% 0.00 in
01:36 33.8 °F 31.5 °F 23.48 in Calm   -999.0 mph 91% 0.00 in
01:52 33.6 °F 31.5 °F 23.47 in Calm   -999.0 mph 92% 0.00 in
02:07 33.4 °F 31.6 °F 23.47 in Calm   -999.0 mph 93% 0.00 in
02:22 33.3 °F 31.8 °F 23.47 in Calm   -999.0 mph 94% 0.00 in
02:37 33.1 °F 31.8 °F 23.46 in Calm   -999.0 mph 95% 0.00 in
02:53 32.9 °F 31.9 °F 23.45 in Calm   -999.0 mph 96% 0.00 in
03:08 32.7 °F 31.7 °F 23.45 in Calm   -999.0 mph 96% 0.00 in
03:24 32.7 °F 31.7 °F 23.45 in Calm   -999.0 mph 96% 0.00 in
03:39 32.5 °F 31.5 °F 23.45 in Calm   -999.0 mph 96% 0.00 in
03:54 32.2 °F 30.7 °F 23.45 in Calm   -999.0 mph 94% 0.00 in
04:12 34.2 °F 30.2 °F 23.44 in Calm   -999.0 mph 85% 0.00 in
04:27 34.3 °F 29.7 °F 23.45 in Calm   -999.0 mph 83% 0.00 in
04:42 35.4 °F 28.6 °F 23.44 in Calm   -999.0 mph 76% 0.00 in
04:57 36.1 °F 28.3 °F 23.44 in Calm   -999.0 mph 73% 0.00 in
05:12 37.0 °F 27.1 °F 23.44 in Calm   -999.0 mph 67% 0.00 in
05:28 37.0 °F 26.7 °F 23.44 in Calm   -999.0 mph 66% 0.00 in
05:43 37.0 °F 26.3 °F 23.44 in SSE 1.7 mph -999.0 mph 65% 0.00 in
05:58 37.0 °F 26.3 °F 23.44 in Calm   -999.0 mph 65% 0.00 in
06:13 37.0 °F 26.0 °F 23.44 in Calm   -999.0 mph 64% 0.00 in
06:28 37.0 °F 24.0 °F 23.44 in NW 3.7 mph -999.0 mph 59% 0.00 in
06:44 37.4 °F 23.5 °F 23.44 in NE 3.7 mph -999.0 mph 57% 0.00 in
06:59 37.9 °F 24.4 °F 23.44 in NW 3.2 mph -999.0 mph 58% 0.00 in
07:15 38.1 °F 25.0 °F 23.44 in North 3.2 mph -999.0 mph 59% 0.00 in
07:30 38.3 °F 26.4 °F 23.45 in NNW 5.8 mph -999.0 mph 62% 0.00 in
07:45 37.6 °F 27.3 °F 23.45 in NNE 2.2 mph -999.0 mph 66% 0.00 in
08:00 37.8 °F 28.2 °F 23.45 in NW 4.7 mph -999.0 mph 68% 0.00 in
08:15 38.3 °F 29.0 °F 23.45 in NNW 2.7 mph -999.0 mph 69% 0.00 in
08:31 38.1 °F 29.2 °F 23.45 in NNW 2.2 mph -999.0 mph 70% 0.00 in
08:46 39.2 °F 30.2 °F 23.45 in NW 4.7 mph -999.0 mph 70% 0.00 in
09:01 39.7 °F 31.8 °F 23.45 in NW 3.7 mph -999.0 mph 73% 0.00 in
09:16 38.1 °F 32.8 °F 23.46 in ESE 3.7 mph -999.0 mph 81% 0.00 in
09:31 39.0 °F 33.4 °F 23.46 in NNW 6.8 mph -999.0 mph 80% 0.00 in
09:47 38.5 °F 33.5 °F 23.46 in North 4.2 mph -999.0 mph 82% 0.00 in
10:02 39.6 °F 33.6 °F 23.46 in WNW 5.8 mph -999.0 mph 79% 0.00 in
10:17 40.8 °F 33.5 °F 23.47 in WNW 4.7 mph -999.0 mph 75% 0.00 in
10:33 42.4 °F 34.0 °F 23.46 in North 3.2 mph -999.0 mph 72% 0.00 in
10:48 44.4 °F 34.9 °F 23.47 in SSE 2.7 mph -999.0 mph 69% 0.00 in
11:03 45.5 °F 33.6 °F 23.46 in West 5.3 mph -999.0 mph 63% 0.00 in
11:18 47.5 °F 33.0 °F 23.46 in NNW 3.7 mph -999.0 mph 57% 0.00 in
11:33 48.7 °F 32.8 °F 23.46 in NW 6.8 mph -999.0 mph 54% 0.00 in
11:49 48.4 °F 33.9 °F 23.46 in NNW 6.3 mph -999.0 mph 57% 0.00 in
12:04 48.9 °F 35.2 °F 23.45 in WNW 5.3 mph -999.0 mph 59% 0.00 in
12:19 48.7 °F 35.0 °F 23.45 in WNW 5.8 mph -999.0 mph 59% 0.00 in
12:35 49.1 °F 33.2 °F 23.46 in NNW 4.2 mph -999.0 mph 54% 0.00 in
12:50 50.2 °F 33.2 °F 23.45 in NNW 2.2 mph -999.0 mph 52% 0.00 in
13:05 50.9 °F 33.9 °F 23.45 in WNW 7.8 mph -999.0 mph 52% 0.00 in
13:21 51.4 °F 34.8 °F 23.44 in NNW 6.3 mph -999.0 mph 53% 0.00 in
13:36 51.1 °F 34.6 °F 23.44 in NNW 5.8 mph -999.0 mph 53% 0.00 in
13:51 50.2 °F 36.0 °F 23.44 in NNW 3.2 mph -999.0 mph 58% 0.00 in
14:06 51.1 °F 36.8 °F 23.43 in NW 5.3 mph -999.0 mph 58% 0.00 in
14:21 50.2 °F 36.8 °F 23.43 in West 4.2 mph -999.0 mph 60% 0.00 in
14:37 51.4 °F 37.5 °F 23.43 in NW 6.3 mph -999.0 mph 59% 0.00 in
14:52 48.9 °F 38.0 °F 23.42 in NW 5.3 mph -999.0 mph 66% 0.00 in
15:07 47.5 °F 37.5 °F 23.43 in North 4.7 mph -999.0 mph 68% 0.00 in
15:22 48.0 °F 37.6 °F 23.43 in North 5.8 mph -999.0 mph 67% 0.00 in
15:37 48.0 °F 37.9 °F 23.42 in NW 5.3 mph -999.0 mph 68% 0.00 in
15:53 47.1 °F 37.1 °F 23.42 in WNW 5.3 mph -999.0 mph 68% 0.00 in
16:09 46.0 °F 37.1 °F 23.42 in West 5.3 mph -999.0 mph 71% 0.00 in
16:24 45.7 °F 36.8 °F 23.42 in NNW 5.8 mph -999.0 mph 71% 0.00 in
16:39 46.6 °F 36.2 °F 23.42 in West 8.3 mph -999.0 mph 67% 0.00 in
16:54 47.1 °F 37.1 °F 23.42 in NNW 4.7 mph -999.0 mph 68% 0.00 in
17:09 49.5 °F 36.6 °F 23.42 in West 2.7 mph -999.0 mph 61% 0.00 in
17:25 44.8 °F 35.6 °F 23.42 in South 3.2 mph -999.0 mph 70% 0.00 in
17:40 40.8 °F 34.5 °F 23.42 in ESE 1.7 mph -999.0 mph 78% 0.00 in
17:55 41.2 °F 34.5 °F 23.42 in Calm   -999.0 mph 77% 0.00 in
18:10 40.1 °F 34.1 °F 23.43 in Calm   -999.0 mph 79% 0.00 in
18:26 40.3 °F 34.3 °F 23.42 in West 2.2 mph -999.0 mph 79% 0.00 in
18:41 39.7 °F 33.7 °F 23.42 in NW 3.2 mph -999.0 mph 79% 0.00 in
18:56 39.4 °F 33.7 °F 23.42 in Calm   -999.0 mph 80% 0.00 in
19:11 39.0 °F 34.0 °F 23.41 in South 4.2 mph -999.0 mph 82% 0.00 in
19:27 38.5 °F 34.4 °F 23.41 in Calm   -999.0 mph 85% 0.00 in
19:42 38.5 °F 34.1 °F 23.41 in Calm   -999.0 mph 84% 0.00 in
19:57 38.1 °F 34.0 °F 23.41 in Calm   -999.0 mph 85% 0.00 in
20:12 37.9 °F 33.8 °F 23.41 in WNW 2.7 mph -999.0 mph 85% 0.00 in
20:27 37.9 °F 34.4 °F 23.40 in Calm   -999.0 mph 87% 0.00 in
20:43 37.9 °F 34.4 °F 23.40 in Calm   -999.0 mph 87% 0.00 in
20:58 37.8 °F 34.3 °F 23.40 in Calm   -999.0 mph 87% 0.00 in
21:13 37.6 °F 34.4 °F 23.41 in Calm   -999.0 mph 88% 0.00 in
21:28 37.4 °F 34.5 °F 23.41 in Calm   -999.0 mph 89% 0.00 in
21:43 36.9 °F 34.5 °F 23.40 in NW 1.1 mph -999.0 mph 91% 0.00 in
21:59 36.3 °F 34.2 °F 23.41 in SW 2.2 mph -999.0 mph 92% 0.00 in
22:14 36.3 °F 34.7 °F 23.41 in Calm   -999.0 mph 94% 0.00 in
22:29 36.3 °F 34.7 °F 23.41 in Calm   -999.0 mph 94% 0.00 in
22:45 36.1 °F 34.3 °F 23.40 in Calm   -999.0 mph 93% 0.00 in
23:00 36.0 °F 34.2 °F 23.40 in Calm   -999.0 mph 93% 0.00 in
23:15 35.6 °F 33.5 °F 23.39 in Calm   -999.0 mph 92% 0.00 in
23:30 36.1 °F 32.3 °F 23.39 in Calm   -999.0 mph 86% 0.00 in
23:45 36.5 °F 32.1 °F 23.39 in NNW 4.2 mph -999.0 mph 84% 0.00 in
Big Bear CA Weather